Dover, DE

12:23 PM EDT on August 22, 2014 (GMT -0400)
Fifer Orchards | Change Station
CLOSE
Current Station
Personal Weather Station
Location: Delaware, DE
Elevation: 46 ft
Nearby Weather Stations

Elev 46 ft 39.12 °N, 75.57 °W | Updated 7 minutes ago

Mostly Cloudy
Mostly Cloudy
77.6 °F
Feels Like 80 °F
N
3.0
Wind Variable Wind from NE
Gusts 9.0 mph

Today
High -- | Low -- °F
--% Chance of Precip.
Yesterday
High -- | Low -- °F
Precip. -- in
6:21 AM 7:47 PM
Waning Crescent, 8% visible
Pressure 29.99 in
Visibility 10.0 miles
Clouds Few 1300 ft
Scattered Clouds 2900 ft
Mostly Cloudy 3500 ft
Heat Index 80 °F
Dew Point 72 °F
Humidity 83%
Rainfall 0.00 in
Snow Depth Not available.
UV 5 out of 12
Pollen 8.90 out of 12
Air Quality Not available.
Flu Activity Not available.
METAR KDOV 221558Z AUTO 05007KT 10SM FEW013 SCT029 BKN035 25/23 A2998 RMK AO2 SLP155 T02540225

More Conditions Fewer Conditions

Pressure 29.99 in
Visibility 10.0 miles
Clouds Few 1300 ft
Scattered Clouds 2900 ft
Mostly Cloudy 3500 ft
Heat Index 80 °F
Dew Point 72 °F
Humidity 83%
Rainfall 0.00 in
Snow Depth Not available.
UV 5 out of 12
Pollen 8.90 out of 12
Air Quality Not available.
Flu Activity Not available.
METAR KDOV 221558Z AUTO 05007KT 10SM FEW013 SCT029 BKN035 25/23 A2998 RMK AO2 SLP155 T02540225

More Conditions Fewer Conditions

10-Day Weather Forecast

Almanac

Astronomy

Aug. 22, 2014 Rise Set
Actual Time 6:21 AM EDT 7:47 PM EDT
Civil Twilight 5:53 AM EDT 8:15 PM EDT
Nautical Twilight 5:19 AM EDT 8:49 PM EDT
Astronomical Twilight 4:44 AM EDT 9:24 PM EDT
Moon 3:42 AM EDT 5:54 PM EDT
Length of Visible Light 14h 22m
Length of Day
13h 25m
Tomorrow will be 2m 20s shorter.
Waning Crescent, 8% of the Moon is Illuminated
Today
Waning Crescent
Aug 25
New
Sep 2
First Quarter
Sep 8
Full
Sep 15
Last Quarter

Today's Extremes

State Highs State Lows

Community

WunderPhotos

Upload Photos

1,746,194 photos uploaded!

Nearby

Snow Depth

Station Depth Elevation
No new snow has been reported.

Earthquake Activity

City Distance Mag. Time & Date
No recent earthquake activity has been reported nearby.
Minimum magnitude displayed is 2.5.

Coastal Water Temperatures

Place Temperature
Cape May, NJ 80.1 °F
Reedy Point, DE 78.1 °F
Delaware City, DE 78.1 °F
Marcus Hook, PA 78.1 °F

Nearby Weather Stations